Time;durP1;ratioP1;P1;durP2;ratioP2;P2;SDS_P1;SDS_P2;PMS_P1;PMS_P2;Temp;Humidity;BMP_temperature;BMP_pressure;BME280_temperature;BME280_humidity;BME280_pressure;Samples;Min_cycle;Max_cycle;Signal;HPM_P1;HPM_P2
2023/05/31 00:02:13;;;;;;;;;;;17.10;67.80;;;;;;6154982;23;19960;-91
2023/05/31 00:04:39;;;;;;;;;;;17.10;67.80;;;;;;6154692;23;20365;-91
2023/05/31 00:07:05;;;;;;;;;;;17.10;67.60;;;;;;6156022;23;19943;-89
2023/05/31 00:09:31;;;;;;;;;;;17.10;67.60;;;;;;6154271;23;19905;-90
2023/05/31 00:11:56;;;;;;;;;;;17.10;67.50;;;;;;6154377;23;19920;-91
2023/05/31 00:14:21;;;;;;;;;;;17.10;67.50;;;;;;6154710;23;19904;-89
2023/05/31 00:16:47;;;;;;;;;;;17.10;67.30;;;;;;6153987;23;19904;-92
2023/05/31 00:19:12;;;;;;;;;;;17.10;67.20;;;;;;6155773;23;19923;-92
2023/05/31 00:21:38;;;;;;;;;;;17.00;67.20;;;;;;6154495;23;19904;-92
2023/05/31 00:24:04;;;;;;;;;;;17.10;66.90;;;;;;6154333;23;19905;-92
2023/05/31 00:26:29;;;;;;;;;;;17.00;66.80;;;;;;6153905;23;19928;-91
2023/05/31 00:28:55;;;;;;;;;;;17.00;66.30;;;;;;6153441;23;20405;-90
2023/05/31 00:31:20;;;;;;;;;;;17.00;66.40;;;;;;6154242;23;19912;-90
2023/05/31 00:33:46;;;;;;;;;;;17.00;66.30;;;;;;6154931;23;19909;-90
2023/05/31 00:36:11;;;;;;;;;;;17.00;66.20;;;;;;6155280;23;19905;-91
2023/05/31 00:38:37;;;;;;;;;;;17.00;66.10;;;;;;6154273;23;20330;-90
2023/05/31 00:41:02;;;;;;;;;;;17.00;66.20;;;;;;6154208;23;20322;-90
2023/05/31 00:43:28;;;;;;;;;;;17.00;66.00;;;;;;6153865;23;19908;-91
2023/05/31 00:45:54;;;;;;;;;;;17.00;65.90;;;;;;6153931;23;19949;-90
2023/05/31 00:48:20;;;;;;;;;;;17.00;65.80;;;;;;6155809;23;19905;-89
2023/05/31 00:50:45;;;;;;;;;;;17.00;65.90;;;;;;6153641;23;19919;-90
2023/05/31 00:53:11;;;;;;;;;;;17.00;66.00;;;;;;6153840;23;19904;-90
2023/05/31 00:55:36;;;;;;;;;;;17.00;65.80;;;;;;6153837;23;19904;-91
2023/05/31 00:58:02;;;;;;;;;;;17.00;65.80;;;;;;6153422;23;19987;-90
2023/05/31 01:00:27;;;;;;;;;;;17.00;65.50;;;;;;6153483;23;19905;-89
2023/05/31 01:02:53;;;;;;;;;;;17.00;65.70;;;;;;6153993;23;19984;-89
2023/05/31 01:05:19;;;;;;;;;;;17.00;65.50;;;;;;6155038;23;19959;-89
2023/05/31 01:07:44;;;;;;;;;;;17.00;65.60;;;;;;6154761;23;19905;-90
2023/05/31 01:10:13;;;;;;;;;;;17.00;65.50;;;;;;6154079;23;19920;-90
2023/05/31 01:13:05;;;;;;;;;;;17.00;65.30;;;;;;6152796;23;19905;-90
2023/05/31 01:15:44;;;;;;;;;;;17.00;65.20;;;;;;6148008;23;19916;-90
2023/05/31 01:18:32;;;;;;;;;;;16.90;65.50;;;;;;6153972;23;19909;-90
2023/05/31 01:21:03;;;;;;;;;;;16.90;65.30;;;;;;6152449;23;20001;-90
2023/05/31 01:23:37;;;;;;;;;;;16.90;65.20;;;;;;6154997;23;19905;-90
2023/05/31 01:26:04;;;;;;;;;;;16.90;65.40;;;;;;6153490;23;19908;-89
2023/05/31 01:28:32;;;;;;;;;;;16.90;65.20;;;;;;6154087;23;19919;-91
2023/05/31 01:31:00;;;;;;;;;;;16.90;65.10;;;;;;6153812;23;19909;-91
2023/05/31 01:33:25;;;;;;;;;;;16.90;65.10;;;;;;6153731;23;20041;-89
2023/05/31 01:35:51;;;;;;;;;;;16.90;65.20;;;;;;6154025;23;19908;-90
2023/05/31 01:38:16;;;;;;;;;;;16.90;65.00;;;;;;6154338;23;19909;-90
2023/05/31 01:40:45;;;;;;;;;;;16.90;64.80;;;;;;6153901;23;19926;-91
2023/05/31 01:43:10;;;;;;;;;;;16.90;65.00;;;;;;6153497;23;20229;-89
2023/05/31 01:45:36;;;;;;;;;;;16.90;64.90;;;;;;6153783;23;19943;-90
2023/05/31 01:48:03;;;;;;;;;;;16.90;65.00;;;;;;6155568;23;20236;-90
2023/05/31 01:50:28;;;;;;;;;;;16.90;65.00;;;;;;6153477;23;19908;-90
2023/05/31 01:52:54;;;;;;;;;;;16.90;64.90;;;;;;6155747;23;20486;-90
2023/05/31 01:55:19;;;;;;;;;;;16.90;65.00;;;;;;6155227;23;19908;-89
2023/05/31 01:57:45;;;;;;;;;;;16.90;64.90;;;;;;6154949;23;19904;-90
2023/05/31 02:00:12;;;;;;;;;;;16.90;64.90;;;;;;6155851;23;19905;-89
2023/05/31 02:02:40;;;;;;;;;;;16.90;65.00;;;;;;6156914;23;19987;-91
2023/05/31 02:05:11;;;;;;;;;;;16.90;65.10;;;;;;6156354;23;19976;-89
2023/05/31 02:07:40;;;;;;;;;;;16.90;65.10;;;;;;6155856;23;19905;-90
2023/05/31 02:10:06;;;;;;;;;;;16.90;65.10;;;;;;6155244;23;19909;-91
2023/05/31 02:12:32;;;;;;;;;;;16.90;65.00;;;;;;6154709;23;19927;-90
2023/05/31 02:14:57;;;;;;;;;;;16.90;65.20;;;;;;6155595;23;19909;-90
2023/05/31 02:17:23;;;;;;;;;;;16.90;65.10;;;;;;6155372;23;19912;-90
2023/05/31 02:19:52;;;;;;;;;;;16.90;65.40;;;;;;6156291;23;19908;-90
2023/05/31 02:22:18;;;;;;;;;;;16.90;65.30;;;;;;6155316;23;19908;-90
2023/05/31 02:24:45;;;;;;;;;;;16.80;65.40;;;;;;6155841;23;19911;-90
2023/05/31 02:27:11;;;;;;;;;;;16.80;65.50;;;;;;6154190;23;19936;-89
2023/05/31 02:29:37;;;;;;;;;;;16.80;65.50;;;;;;6155729;23;19948;-90
2023/05/31 02:32:02;;;;;;;;;;;16.80;65.50;;;;;;6155495;23;20522;-89
2023/05/31 02:34:28;;;;;;;;;;;16.80;65.60;;;;;;6157197;23;19904;-90
2023/05/31 02:36:53;;;;;;;;;;;16.80;65.40;;;;;;6156158;23;19908;-90
2023/05/31 02:39:19;;;;;;;;;;;16.80;65.60;;;;;;6155684;23;19908;-90
2023/05/31 02:41:45;;;;;;;;;;;16.80;65.60;;;;;;6155551;23;19911;-91
2023/05/31 02:44:10;;;;;;;;;;;16.80;65.60;;;;;;6155138;23;19904;-90
2023/05/31 02:46:36;;;;;;;;;;;16.80;65.70;;;;;;6155843;23;19909;-89
2023/05/31 02:49:02;;;;;;;;;;;16.80;65.70;;;;;;6155182;23;20331;-89
2023/05/31 02:51:28;;;;;;;;;;;16.80;65.70;;;;;;6155458;23;19940;-89
2023/05/31 02:53:53;;;;;;;;;;;16.80;65.70;;;;;;6156059;23;19916;-90
2023/05/31 02:56:19;;;;;;;;;;;16.80;65.70;;;;;;6156091;23;19912;-90
2023/05/31 02:58:45;;;;;;;;;;;16.80;65.70;;;;;;6155135;23;19904;-89
2023/05/31 03:01:11;;;;;;;;;;;16.80;66.00;;;;;;6156399;23;19952;-89
2023/05/31 03:03:36;;;;;;;;;;;16.80;65.90;;;;;;6155703;23;19928;-90
2023/05/31 03:06:04;;;;;;;;;;;16.80;65.80;;;;;;6156548;23;19908;-89
2023/05/31 03:08:30;;;;;;;;;;;16.80;65.90;;;;;;6156106;23;19905;-89
2023/05/31 03:10:55;;;;;;;;;;;16.80;66.20;;;;;;6156266;23;19908;-90
2023/05/31 03:13:21;;;;;;;;;;;16.80;66.20;;;;;;6155148;23;19916;-89
2023/05/31 03:15:47;;;;;;;;;;;16.80;66.30;;;;;;6156428;23;19905;-89
2023/05/31 03:18:12;;;;;;;;;;;16.70;66.10;;;;;;6154749;23;20294;-89
2023/05/31 03:20:38;;;;;;;;;;;16.70;66.40;;;;;;6155744;23;19908;-89
2023/05/31 03:23:03;;;;;;;;;;;16.70;66.30;;;;;;6155149;23;19909;-90
2023/05/31 03:25:30;;;;;;;;;;;16.70;66.40;;;;;;6154937;23;19950;-89
2023/05/31 03:27:57;;;;;;;;;;;16.70;66.50;;;;;;6156150;23;19913;-90
2023/05/31 03:30:22;;;;;;;;;;;16.70;66.50;;;;;;6155432;23;19908;-89
2023/05/31 03:32:48;;;;;;;;;;;16.70;66.50;;;;;;6155143;23;19983;-90
2023/05/31 03:35:13;;;;;;;;;;;16.70;66.50;;;;;;6155270;23;19920;-89
2023/05/31 03:37:39;;;;;;;;;;;16.70;66.50;;;;;;6155728;23;19904;-90
2023/05/31 03:40:05;;;;;;;;;;;16.70;66.60;;;;;;6154473;23;20345;-90
2023/05/31 03:42:31;;;;;;;;;;;16.70;66.60;;;;;;6155131;23;19913;-90
2023/05/31 03:44:57;;;;;;;;;;;16.70;66.70;;;;;;6155151;23;19983;-87
2023/05/31 03:47:22;;;;;;;;;;;16.60;66.80;;;;;;6155018;23;20449;-89
2023/05/31 03:49:48;;;;;;;;;;;16.70;66.90;;;;;;6155419;23;20282;-90
2023/05/31 03:52:13;;;;;;;;;;;16.70;66.80;;;;;;6154865;23;19909;-90
2023/05/31 03:54:39;;;;;;;;;;;16.70;66.90;;;;;;6154484;23;19909;-88
2023/05/31 03:57:05;;;;;;;;;;;16.70;67.00;;;;;;6154174;23;19909;-89
2023/05/31 03:59:31;;;;;;;;;;;16.70;66.90;;;;;;6154692;23;19905;-90
2023/05/31 04:01:56;;;;;;;;;;;16.70;66.90;;;;;;6155434;23;20048;-90
2023/05/31 04:04:22;;;;;;;;;;;16.70;67.00;;;;;;6155008;23;19904;-91
2023/05/31 04:06:47;;;;;;;;;;;16.70;66.80;;;;;;6155504;23;19904;-90
2023/05/31 04:09:13;;;;;;;;;;;16.70;66.90;;;;;;6153912;23;20521;-90
2023/05/31 04:11:38;;;;;;;;;;;16.60;66.80;;;;;;6154854;23;19909;-89
2023/05/31 04:14:04;;;;;;;;;;;16.70;66.80;;;;;;6154862;23;19905;-90
2023/05/31 04:16:29;;;;;;;;;;;16.70;66.80;;;;;;6155755;23;19912;-90
2023/05/31 04:18:55;;;;;;;;;;;16.60;66.80;;;;;;6155638;23;19912;-90
2023/05/31 04:21:24;;;;;;;;;;;16.60;66.60;;;;;;6155562;23;19955;-89
2023/05/31 04:23:50;;;;;;;;;;;16.70;66.80;;;;;;6155820;23;19905;-88
2023/05/31 04:26:18;;;;;;;;;;;16.70;66.80;;;;;;6155497;23;19911;-90
2023/05/31 04:28:44;;;;;;;;;;;16.60;66.80;;;;;;6155009;23;19913;-90
2023/05/31 04:31:11;;;;;;;;;;;16.70;66.80;;;;;;6154536;23;20085;-90
2023/05/31 04:33:38;;;;;;;;;;;16.60;66.70;;;;;;6156392;23;20003;-90
2023/05/31 04:36:04;;;;;;;;;;;16.60;66.70;;;;;;6155415;23;19932;-91
2023/05/31 04:38:32;;;;;;;;;;;16.60;66.70;;;;;;6155210;23;19931;-90
2023/05/31 04:40:57;;;;;;;;;;;16.60;66.60;;;;;;6155770;23;19910;-91
2023/05/31 04:43:25;;;;;;;;;;;16.60;66.70;;;;;;6157367;23;20287;-91
2023/05/31 04:45:51;;;;;;;;;;;16.60;66.70;;;;;;6156030;23;19908;-90
2023/05/31 04:48:17;;;;;;;;;;;16.60;66.70;;;;;;6155283;23;19904;-90
2023/05/31 04:50:43;;;;;;;;;;;16.60;66.60;;;;;;6155265;23;19947;-89
2023/05/31 04:53:10;;;;;;;;;;;16.60;66.70;;;;;;6155736;23;20215;-91
2023/05/31 04:55:35;;;;;;;;;;;16.60;66.50;;;;;;6155234;23;19988;-92
2023/05/31 04:58:01;;;;;;;;;;;16.60;67.30;;;;;;6155084;23;19936;-90
2023/05/31 05:00:26;;;;;;;;;;;16.70;66.50;;;;;;6155461;23;19940;-90
2023/05/31 05:02:52;;;;;;;;;;;16.60;66.60;;;;;;6155384;23;20314;-90
2023/05/31 05:05:18;;;;;;;;;;;16.60;66.40;;;;;;6154668;23;19965;-91
2023/05/31 05:07:44;;;;;;;;;;;16.60;66.40;;;;;;6154860;23;19913;-89
2023/05/31 05:10:09;;;;;;;;;;;16.70;66.50;;;;;;6153437;23;19916;-90
2023/05/31 05:12:35;;;;;;;;;;;16.70;66.50;;;;;;6154798;23;19947;-93
2023/05/31 05:15:01;;;;;;;;;;;16.60;66.60;;;;;;6154916;23;19932;-90
2023/05/31 05:17:26;;;;;;;;;;;16.70;66.50;;;;;;6153657;23;19913;-91
2023/05/31 05:19:52;;;;;;;;;;;16.70;66.70;;;;;;6154504;23;19916;-90
2023/05/31 05:22:17;;;;;;;;;;;16.70;66.60;;;;;;6154431;23;19916;-92
2023/05/31 05:24:43;;;;;;;;;;;16.70;66.60;;;;;;6152886;23;20340;-90
2023/05/31 05:27:08;;;;;;;;;;;16.70;66.60;;;;;;6154427;23;19909;-93
2023/05/31 05:29:34;;;;;;;;;;;16.70;67.00;;;;;;6155960;23;20376;-90
2023/05/31 05:31:59;;;;;;;;;;;16.70;66.50;;;;;;6155759;23;19963;-91
2023/05/31 05:34:25;;;;;;;;;;;16.70;66.60;;;;;;6155931;23;19952;-91
2023/05/31 05:36:52;;;;;;;;;;;16.80;66.60;;;;;;6155408;23;19904;-91
2023/05/31 05:39:18;;;;;;;;;;;16.80;66.70;;;;;;6155473;23;19911;-90
2023/05/31 05:41:43;;;;;;;;;;;16.80;66.60;;;;;;6154797;23;19912;-91
2023/05/31 05:44:09;;;;;;;;;;;16.80;66.40;;;;;;6156603;23;19908;-90
2023/05/31 05:46:35;;;;;;;;;;;16.80;66.40;;;;;;6153950;23;19938;-91
2023/05/31 05:49:00;;;;;;;;;;;16.80;66.40;;;;;;6154988;23;19908;-90
2023/05/31 05:51:26;;;;;;;;;;;16.80;66.30;;;;;;6154437;23;19923;-90
2023/05/31 05:53:54;;;;;;;;;;;16.90;66.30;;;;;;6157260;23;19904;-96
2023/05/31 05:56:19;;;;;;;;;;;16.80;66.20;;;;;;6153274;23;19931;-95
2023/05/31 05:58:46;;;;;;;;;;;16.80;64.50;;;;;;6155373;23;20381;-95
2023/05/31 06:01:12;;;;;;;;;;;16.80;64.20;;;;;;6155319;23;19905;-94
2023/05/31 06:03:41;;;;;;;;;;;16.80;63.70;;;;;;6155371;23;19909;-95
2023/05/31 06:06:06;;;;;;;;;;;16.80;63.60;;;;;;6155400;23;20518;-93
2023/05/31 06:08:32;;;;;;;;;;;16.80;63.00;;;;;;6154917;23;19982;-94
2023/05/31 06:10:57;;;;;;;;;;;16.80;62.80;;;;;;6156439;23;19913;-95
2023/05/31 06:13:23;;;;;;;;;;;16.80;62.90;;;;;;6154513;23;19909;-95
2023/05/31 06:15:48;;;;;;;;;;;16.80;62.40;;;;;;6154984;23;19983;-95
2023/05/31 06:18:14;;;;;;;;;;;16.90;61.60;;;;;;6156952;23;19939;-94
2023/05/31 06:20:41;;;;;;;;;;;16.90;62.20;;;;;;6154837;23;19947;-94
2023/05/31 06:23:06;;;;;;;;;;;16.90;62.00;;;;;;6152878;23;19905;-95
2023/05/31 06:25:33;;;;;;;;;;;16.90;61.80;;;;;;6154191;23;19911;-94
2023/05/31 06:28:14;;;;;;;;;;;;;;;;;;;;;
2023/05/31 06:30:48;;;;;;;;;;;17.00;61.70;;;;;;6153789;23;19999;-92
2023/05/31 06:33:24;;;;;;;;;;;17.10;61.80;;;;;;6153741;23;20242;-95
2023/05/31 06:36:19;;;;;;;;;;;17.10;61.10;;;;;;6130848;23;19945;-95
2023/05/31 06:42:24;;;;;;;;;;;;;;;;;;;;;
2023/05/31 06:45:41;;;;;;;;;;;17.30;60.90;;;;;;5951937;24;19990;-95
2023/05/31 06:51:23;;;;;;;;;;;;;;;;;;;;;
2023/05/31 06:54:08;;;;;;;;;;;;;;;;;;;;;
2023/05/31 06:57:07;;;;;;;;;;;;;;;;;;;;;
2023/05/31 06:59:48;;;;;;;;;;;17.60;59.60;;;;;;5844057;24;20006;-94
2023/05/31 07:02:55;;;;;;;;;;;17.60;59.60;;;;;;5821257;24;19912;-95
2023/05/31 07:05:46;;;;;;;;;;;17.70;59.50;;;;;;5842970;24;19919;-96
2023/05/31 07:08:21;;;;;;;;;;;17.80;59.00;;;;;;5789499;24;20380;-94
2023/05/31 07:10:55;;;;;;;;;;;17.80;59.10;;;;;;5767463;24;20349;-95
2023/05/31 07:13:22;;;;;;;;;;;17.90;59.30;;;;;;5767187;24;19909;-96
2023/05/31 07:15:56;;;;;;;;;;;17.90;59.20;;;;;;5834906;24;19943;-93
2023/05/31 07:18:21;;;;;;;;;;;18.00;59.10;;;;;;5847126;24;19908;-96
2023/05/31 07:20:47;;;;;;;;;;;18.00;59.10;;;;;;5851971;24;20675;-96
2023/05/31 07:23:12;;;;;;;;;;;18.10;59.20;;;;;;5901283;24;19911;-94
2023/05/31 07:25:38;;;;;;;;;;;18.20;59.20;;;;;;5901282;24;19931;-92
2023/05/31 07:28:03;;;;;;;;;;;18.20;59.00;;;;;;5957934;23;20297;-96
2023/05/31 07:30:29;;;;;;;;;;;18.30;58.80;;;;;;6022907;23;19996;-95
2023/05/31 07:32:55;;;;;;;;;;;18.30;58.90;;;;;;6070568;23;19906;-94
2023/05/31 07:35:20;;;;;;;;;;;18.40;58.70;;;;;;6069337;23;19909;-94
2023/05/31 07:37:46;;;;;;;;;;;18.40;58.70;;;;;;6069165;23;19959;-93
2023/05/31 07:40:13;;;;;;;;;;;18.50;58.70;;;;;;6068896;23;19953;-92
2023/05/31 07:42:39;;;;;;;;;;;18.50;58.40;;;;;;6065435;23;19909;-95
2023/05/31 07:45:05;;;;;;;;;;;18.60;58.10;;;;;;6105315;23;19911;-96
2023/05/31 07:47:31;;;;;;;;;;;18.60;58.10;;;;;;6153621;23;19904;-93
2023/05/31 07:49:57;;;;;;;;;;;18.60;57.90;;;;;;6152179;23;20043;-95
2023/05/31 07:52:22;;;;;;;;;;;18.70;57.80;;;;;;6156052;23;20361;-96
2023/05/31 07:54:49;;;;;;;;;;;18.70;57.90;;;;;;6154106;23;19971;-96
2023/05/31 07:57:15;;;;;;;;;;;18.70;57.70;;;;;;6129332;23;19924;-94
2023/05/31 07:59:40;;;;;;;;;;;18.90;57.60;;;;;;6151882;23;20029;-96
2023/05/31 08:02:06;;;;;;;;;;;18.90;57.50;;;;;;6151481;23;19909;-95
2023/05/31 08:04:31;;;;;;;;;;;18.90;57.10;;;;;;6151802;23;19912;-96
2023/05/31 08:06:57;;;;;;;;;;;19.00;56.90;;;;;;6152123;23;19904;-92
2023/05/31 08:09:22;;;;;;;;;;;19.00;57.00;;;;;;6151280;23;19905;-95
2023/05/31 08:11:48;;;;;;;;;;;19.10;57.30;;;;;;6152441;23;19916;-93
2023/05/31 08:14:14;;;;;;;;;;;19.00;56.90;;;;;;6152175;23;19955;-94
2023/05/31 08:16:39;;;;;;;;;;;19.10;56.90;;;;;;6151470;23;19909;-95
2023/05/31 08:19:05;;;;;;;;;;;19.10;56.80;;;;;;6152864;23;19914;-94
2023/05/31 08:21:31;;;;;;;;;;;19.10;56.60;;;;;;6153177;23;19904;-94
2023/05/31 08:23:57;;;;;;;;;;;19.20;56.50;;;;;;6152707;23;19909;-94
2023/05/31 08:26:23;;;;;;;;;;;19.20;56.60;;;;;;6153012;23;19920;-93
2023/05/31 08:28:49;;;;;;;;;;;19.30;57.20;;;;;;6152706;23;19913;-93
2023/05/31 08:31:15;;;;;;;;;;;19.30;56.50;;;;;;6153119;23;19991;-95
2023/05/31 08:33:56;;;;;;;;;;;19.30;56.40;;;;;;6155425;23;19912;-96
2023/05/31 08:36:22;;;;;;;;;;;19.40;56.70;;;;;;6157379;23;19909;-93
2023/05/31 08:38:47;;;;;;;;;;;19.40;56.80;;;;;;6159830;23;20291;-96
2023/05/31 08:41:13;;;;;;;;;;;19.50;56.90;;;;;;6159523;23;19939;-96
2023/05/31 08:43:40;;;;;;;;;;;19.50;57.00;;;;;;6168743;23;20377;-96
2023/05/31 08:46:14;;;;;;;;;;;19.50;57.60;;;;;;6164496;23;19928;-96
2023/05/31 08:48:49;;;;;;;;;;;19.50;57.00;;;;;;6159190;23;20133;-96
2023/05/31 08:51:18;;;;;;;;;;;19.50;56.20;;;;;;6164840;23;19929;-96
2023/05/31 08:54:02;;;;;;;;;;;19.60;56.50;;;;;;6168287;23;19909;-96
2023/05/31 08:56:28;;;;;;;;;;;19.60;56.20;;;;;;6165300;23;19892;-96
2023/05/31 08:58:58;;;;;;;;;;;19.60;55.70;;;;;;6173652;23;19954;-96
2023/05/31 09:01:31;;;;;;;;;;;19.60;55.90;;;;;;6166935;23;19897;-96
2023/05/31 09:03:56;;;;;;;;;;;19.80;56.40;;;;;;6167230;23;19904;-96
2023/05/31 09:06:29;;;;;;;;;;;19.60;55.80;;;;;;6165219;23;19949;-96
2023/05/31 09:08:54;;;;;;;;;;;19.70;55.90;;;;;;6163303;23;19983;-94
2023/05/31 09:11:20;;;;;;;;;;;19.60;55.70;;;;;;6161024;23;20250;-96
2023/05/31 09:13:49;;;;;;;;;;;19.70;55.50;;;;;;6163419;23;19908;-96
2023/05/31 09:16:17;;;;;;;;;;;19.70;55.40;;;;;;6160953;23;19899;-96
2023/05/31 09:18:48;;;;;;;;;;;19.70;55.30;;;;;;6162366;23;19978;-96
2023/05/31 09:21:20;;;;;;;;;;;19.70;55.20;;;;;;6162168;23;20315;-96
2023/05/31 09:23:53;;;;;;;;;;;19.80;55.60;;;;;;6160632;23;20266;-95
2023/05/31 09:26:19;;;;;;;;;;;19.80;55.50;;;;;;6158871;23;19905;-96
2023/05/31 09:28:56;;;;;;;;;;;19.80;55.20;;;;;;6161839;23;19919;-96
2023/05/31 09:31:25;;;;;;;;;;;20.00;55.40;;;;;;6164235;23;19931;-96
2023/05/31 09:33:54;;;;;;;;;;;19.90;55.90;;;;;;6161367;23;19905;-96
2023/05/31 09:36:24;;;;;;;;;;;19.90;55.70;;;;;;6156032;23;19908;-94
2023/05/31 09:38:51;;;;;;;;;;;19.80;55.80;;;;;;6154764;23;19908;-96
2023/05/31 09:41:20;;;;;;;;;;;19.90;55.00;;;;;;6130099;23;19908;-96
2023/05/31 09:43:49;;;;;;;;;;;19.90;54.90;;;;;;6152817;23;19909;-94
2023/05/31 09:46:19;;;;;;;;;;;19.80;54.80;;;;;;6155970;23;19905;-94
2023/05/31 09:48:56;;;;;;;;;;;19.80;55.10;;;;;;6155643;23;20364;-96
2023/05/31 09:51:21;;;;;;;;;;;19.90;54.70;;;;;;6156238;23;19940;-94
2023/05/31 09:53:49;;;;;;;;;;;19.90;55.30;;;;;;6155707;23;19905;-96
2023/05/31 09:56:19;;;;;;;;;;;19.90;54.70;;;;;;6153590;23;19908;-95
2023/05/31 09:58:45;;;;;;;;;;;19.90;54.60;;;;;;6155560;23;19928;-96
2023/05/31 10:01:10;;;;;;;;;;;19.90;54.60;;;;;;6154888;23;19908;-96
2023/05/31 10:03:36;;;;;;;;;;;19.90;54.90;;;;;;6155212;23;19905;-95
2023/05/31 10:06:05;;;;;;;;;;;19.80;54.20;;;;;;6153077;23;19943;-94
2023/05/31 10:08:31;;;;;;;;;;;19.90;54.70;;;;;;6152297;23;19908;-96
2023/05/31 10:11:00;;;;;;;;;;;19.90;55.00;;;;;;6150941;23;19908;-94
2023/05/31 10:13:29;;;;;;;;;;;19.90;54.80;;;;;;6153857;23;19905;-93
2023/05/31 10:15:56;;;;;;;;;;;19.90;54.70;;;;;;6155778;23;19984;-96
2023/05/31 10:18:27;;;;;;;;;;;19.90;54.40;;;;;;6130355;23;19909;-94
2023/05/31 10:20:55;;;;;;;;;;;19.90;54.40;;;;;;6155313;23;19913;-95
2023/05/31 10:23:22;;;;;;;;;;;19.80;54.40;;;;;;6154868;23;19927;-93
2023/05/31 10:26:05;;;;;;;;;;;19.80;54.70;;;;;;6153785;23;20026;-94
2023/05/31 10:28:35;;;;;;;;;;;19.90;54.90;;;;;;6155643;23;19999;-89
2023/05/31 10:31:02;;;;;;;;;;;19.80;54.80;;;;;;6154534;23;19948;-92
2023/05/31 10:33:30;;;;;;;;;;;19.80;54.90;;;;;;6156841;23;19996;-89
2023/05/31 10:35:58;;;;;;;;;;;19.80;54.70;;;;;;6157176;23;20393;-90
2023/05/31 10:38:27;;;;;;;;;;;19.80;55.00;;;;;;6155872;23;19905;-89
2023/05/31 10:41:01;;;;;;;;;;;19.80;54.80;;;;;;6156824;23;19905;-88
2023/05/31 10:43:32;;;;;;;;;;;19.80;54.90;;;;;;6155627;23;19908;-86
2023/05/31 10:46:02;;;;;;;;;;;19.70;54.30;;;;;;6155997;23;19983;-87
2023/05/31 10:48:50;;;;;;;;;;;19.70;54.80;;;;;;6156583;23;19905;-87
2023/05/31 10:51:16;;;;;;;;;;;19.70;55.00;;;;;;6157709;23;19916;-88
2023/05/31 10:53:43;;;;;;;;;;;19.60;54.90;;;;;;6157858;23;19909;-87
2023/05/31 10:56:17;;;;;;;;;;;19.60;55.30;;;;;;6156054;23;19905;-90
2023/05/31 10:58:51;;;;;;;;;;;19.70;55.70;;;;;;6156971;23;20315;-89
2023/05/31 11:01:21;;;;;;;;;;;19.70;54.90;;;;;;6156711;23;19912;-88
2023/05/31 11:03:53;;;;;;;;;;;19.70;55.60;;;;;;6155846;23;19932;-87
2023/05/31 11:06:32;;;;;;;;;;;19.60;55.50;;;;;;6154149;23;19905;-88
2023/05/31 11:09:05;;;;;;;;;;;19.60;55.50;;;;;;6154308;23;19905;-88
2023/05/31 11:11:31;;;;;;;;;;;19.60;55.50;;;;;;6155395;23;19913;-89
2023/05/31 11:14:00;;;;;;;;;;;19.60;55.00;;;;;;6155744;23;19931;-89
2023/05/31 11:16:26;;;;;;;;;;;19.60;54.80;;;;;;6154384;23;19905;-86
2023/05/31 11:19:02;;;;;;;;;;;19.60;54.80;;;;;;6155205;23;19912;-88
2023/05/31 11:21:47;;;;;;;;;;;19.60;56.10;;;;;;6155882;23;20315;-89
2023/05/31 11:24:33;;;;;;;;;;;19.60;55.50;;;;;;6154805;23;20011;-89
2023/05/31 11:27:00;;;;;;;;;;;19.50;55.60;;;;;;6155615;23;19905;-87
2023/05/31 11:29:48;;;;;;;;;;;19.50;55.10;;;;;;6155060;23;19951;-91
2023/05/31 11:32:14;;;;;;;;;;;19.50;55.10;;;;;;6154560;23;20376;-90
2023/05/31 11:34:51;;;;;;;;;;;19.40;54.60;;;;;;6155460;23;19912;-92
2023/05/31 11:37:16;;;;;;;;;;;19.50;55.50;;;;;;6156222;23;19925;-90
2023/05/31 11:39:47;;;;;;;;;;;19.50;54.20;;;;;;6154427;23;19904;-90
2023/05/31 11:42:14;;;;;;;;;;;19.40;55.00;;;;;;6154409;23;19908;-91
2023/05/31 11:44:46;;;;;;;;;;;19.40;54.70;;;;;;6154708;23;19955;-90
2023/05/31 11:47:17;;;;;;;;;;;19.50;55.10;;;;;;6155821;23;19911;-89
2023/05/31 11:49:43;;;;;;;;;;;19.50;55.80;;;;;;6154883;23;19983;-91
2023/05/31 11:52:08;;;;;;;;;;;19.50;54.60;;;;;;6154552;23;19912;-92
2023/05/31 11:54:35;;;;;;;;;;;19.50;54.30;;;;;;6152589;23;19945;-91
2023/05/31 11:57:02;;;;;;;;;;;19.50;55.10;;;;;;6152685;23;20322;-90
2023/05/31 11:59:31;;;;;;;;;;;19.50;54.30;;;;;;6153017;23;19916;-90
2023/05/31 12:01:59;;;;;;;;;;;19.50;54.00;;;;;;6152976;23;19915;-89
2023/05/31 12:04:38;;;;;;;;;;;19.50;54.50;;;;;;6153616;23;20064;-91
2023/05/31 12:07:09;;;;;;;;;;;19.50;54.50;;;;;;6153000;23;19908;-91
2023/05/31 12:09:34;;;;;;;;;;;19.50;55.00;;;;;;6153527;23;19909;-90
2023/05/31 12:12:02;;;;;;;;;;;19.50;54.80;;;;;;6153252;23;20232;-90
2023/05/31 12:14:28;;;;;;;;;;;19.50;54.70;;;;;;6153617;23;19904;-90
2023/05/31 12:16:54;;;;;;;;;;;19.50;54.20;;;;;;6152855;23;19959;-89
2023/05/31 12:19:19;;;;;;;;;;;19.50;55.20;;;;;;6153872;23;19904;-90
2023/05/31 12:21:45;;;;;;;;;;;19.50;54.70;;;;;;6154680;23;19912;-90
2023/05/31 12:24:11;;;;;;;;;;;19.50;54.40;;;;;;6152920;23;19915;-89
2023/05/31 12:26:37;;;;;;;;;;;19.60;53.00;;;;;;6151344;23;19932;-88
2023/05/31 12:29:02;;;;;;;;;;;19.50;53.80;;;;;;6153701;23;19947;-89
2023/05/31 12:31:31;;;;;;;;;;;19.50;53.70;;;;;;6153763;23;19940;-89
2023/05/31 12:34:00;;;;;;;;;;;19.60;53.70;;;;;;6153687;23;19904;-89
2023/05/31 12:36:26;;;;;;;;;;;19.50;53.90;;;;;;6153639;23;20258;-89
2023/05/31 12:38:58;;;;;;;;;;;19.60;53.70;;;;;;6152781;23;19904;-91
2023/05/31 12:41:23;;;;;;;;;;;19.60;53.70;;;;;;6152792;23;19927;-91
2023/05/31 12:43:49;;;;;;;;;;;19.50;53.20;;;;;;6153672;23;20323;-85
2023/05/31 12:46:18;;;;;;;;;;;19.50;54.00;;;;;;6154781;23;19904;-91
2023/05/31 12:48:47;;;;;;;;;;;19.60;53.90;;;;;;6152034;23;19905;-90
2023/05/31 12:51:13;;;;;;;;;;;19.50;53.60;;;;;;6152836;23;19940;-91
2023/05/31 12:53:39;;;;;;;;;;;19.50;54.00;;;;;;6153759;23;19904;-90
2023/05/31 12:56:05;;;;;;;;;;;19.50;53.80;;;;;;6152800;23;19905;-91
2023/05/31 12:58:30;;;;;;;;;;;19.60;52.70;;;;;;6153731;23;19912;-89
2023/05/31 13:00:56;;;;;;;;;;;19.60;52.80;;;;;;6153047;23;19905;-92
2023/05/31 13:03:21;;;;;;;;;;;19.60;51.50;;;;;;6153192;23;20007;-90
2023/05/31 13:05:47;;;;;;;;;;;19.60;51.90;;;;;;6154295;23;20383;-90
2023/05/31 13:08:12;;;;;;;;;;;19.60;51.50;;;;;;6154147;23;19904;-89
2023/05/31 13:10:38;;;;;;;;;;;19.60;51.50;;;;;;6154850;23;19908;-89
2023/05/31 13:13:05;;;;;;;;;;;19.70;51.40;;;;;;6154072;23;19952;-92
2023/05/31 13:15:30;;;;;;;;;;;19.60;52.80;;;;;;6154445;23;19971;-93
2023/05/31 13:17:56;;;;;;;;;;;19.60;53.10;;;;;;6153611;23;19908;-94
2023/05/31 13:20:21;;;;;;;;;;;19.60;52.70;;;;;;6154070;23;19987;-93
2023/05/31 13:22:47;;;;;;;;;;;19.50;53.00;;;;;;6153128;23;20322;-92
2023/05/31 13:25:13;;;;;;;;;;;19.60;53.00;;;;;;6153769;23;19909;-93
2023/05/31 13:27:39;;;;;;;;;;;19.60;52.30;;;;;;6154884;23;19928;-94
2023/05/31 13:30:06;;;;;;;;;;;19.60;52.20;;;;;;6153983;23;19963;-92
2023/05/31 13:32:32;;;;;;;;;;;19.50;52.90;;;;;;6154048;23;19913;-93
2023/05/31 13:34:57;;;;;;;;;;;19.50;53.40;;;;;;6153768;23;20207;-93
2023/05/31 13:37:23;;;;;;;;;;;19.60;53.00;;;;;;6153838;23;19905;-92
2023/05/31 13:39:48;;;;;;;;;;;19.50;53.50;;;;;;6154004;23;19960;-94
2023/05/31 13:42:14;;;;;;;;;;;19.60;52.30;;;;;;6154562;23;19915;-93
2023/05/31 13:44:40;;;;;;;;;;;19.60;52.10;;;;;;6154060;23;19912;-95
2023/05/31 13:47:05;;;;;;;;;;;19.60;52.20;;;;;;6154583;23;20557;-92
2023/05/31 13:49:31;;;;;;;;;;;19.60;52.10;;;;;;6155735;23;19991;-93
2023/05/31 13:51:56;;;;;;;;;;;19.50;52.50;;;;;;6156215;23;20211;-94
2023/05/31 13:54:22;;;;;;;;;;;19.60;52.10;;;;;;6156069;23;19936;-93
2023/05/31 13:56:47;;;;;;;;;;;19.50;52.80;;;;;;6155989;23;19905;-96
2023/05/31 13:59:13;;;;;;;;;;;19.50;52.30;;;;;;6156271;23;19904;-92
2023/05/31 14:01:38;;;;;;;;;;;19.60;51.60;;;;;;6155548;23;19912;-93
2023/05/31 14:04:04;;;;;;;;;;;19.60;52.00;;;;;;6154804;23;19909;-92
2023/05/31 14:06:30;;;;;;;;;;;19.50;52.50;;;;;;6154162;23;19940;-93
2023/05/31 14:08:56;;;;;;;;;;;19.50;52.10;;;;;;6155902;23;19944;-91
2023/05/31 14:11:22;;;;;;;;;;;19.50;52.10;;;;;;6156435;23;19908;-93
2023/05/31 14:13:48;;;;;;;;;;;19.60;52.40;;;;;;6157499;23;19992;-92
2023/05/31 14:16:14;;;;;;;;;;;19.50;52.50;;;;;;6156403;23;19999;-93
2023/05/31 14:18:39;;;;;;;;;;;19.60;51.60;;;;;;6155885;23;19987;-92
2023/05/31 14:21:05;;;;;;;;;;;19.70;51.10;;;;;;6155851;23;19932;-91
2023/05/31 14:23:31;;;;;;;;;;;19.60;51.40;;;;;;6154712;23;19940;-94
2023/05/31 14:25:57;;;;;;;;;;;19.60;51.10;;;;;;6156498;23;19928;-93
2023/05/31 14:28:22;;;;;;;;;;;19.60;50.10;;;;;;6157327;23;20314;-95
2023/05/31 14:30:48;;;;;;;;;;;19.60;49.30;;;;;;6158587;23;20344;-95
2023/05/31 14:33:27;;;;;;;;;;;19.60;49.10;;;;;;6157983;23;20374;-93